Time;durP1;ratioP1;P1;durP2;ratioP2;P2;SDS_P1;SDS_P2;PMS_P1;PMS_P2;Temp;Humidity;BMP_temperature;BMP_pressure;BME280_temperature;BME280_humidity;BME280_pressure;Samples;Min_cycle;Max_cycle;Signal;HPM_P1;HPM_P2
2023/12/03 00:00:42;;;;;;;0.80;0.80;;;0.40;99.90;;;;;;5079452;28;20090;-83
2023/12/03 00:03:09;;;;;;;0.37;0.37;;;0.30;99.90;;;;;;5080326;28;20044;-83
2023/12/03 00:05:36;;;;;;;0.80;0.77;;;0.30;99.90;;;;;;5077165;28;20041;-83
2023/12/03 00:08:02;;;;;;;1.03;1.03;;;0.30;99.90;;;;;;5076679;28;20093;-83
2023/12/03 00:10:28;;;;;;;0.40;0.40;;;0.30;99.90;;;;;;5080870;28;20060;-83
2023/12/03 00:12:54;;;;;;;1.50;1.13;;;0.30;99.90;;;;;;5080219;28;20054;-83
2023/12/03 00:15:19;;;;;;;0.47;0.47;;;0.30;99.90;;;;;;5079175;28;20075;-83
2023/12/03 00:17:45;;;;;;;0.20;0.20;;;0.20;99.90;;;;;;5062924;28;20053;-82
2023/12/03 00:20:11;;;;;;;0.05;0.05;;;0.20;99.90;;;;;;5078842;28;20048;-82
2023/12/03 00:22:37;;;;;;;0.73;0.73;;;0.20;1.00;;;;;;5082640;28;20067;-82
2023/12/03 00:25:03;;;;;;;3.03;2.73;;;0.10;52.10;;;;;;5059112;28;20029;-82
2023/12/03 00:27:28;;;;;;;0.20;0.20;;;0.00;75.30;;;;;;5081978;28;20555;-82
2023/12/03 00:29:54;;;;;;;0.23;0.23;;;-0.10;79.90;;;;;;5083846;28;20036;-83
2023/12/03 00:32:19;;;;;;;0.30;0.30;;;-0.30;99.20;;;;;;5083258;28;20053;-82
2023/12/03 00:34:45;;;;;;;0.40;0.40;;;-0.40;98.50;;;;;;5081515;28;20509;-83
2023/12/03 00:37:11;;;;;;;1.17;0.83;;;-0.40;95.50;;;;;;5082944;28;20118;-83
2023/12/03 00:39:37;;;;;;;0.27;0.27;;;-0.50;97.90;;;;;;5083386;28;20037;-83
2023/12/03 00:42:03;;;;;;;0.50;0.50;;;-0.60;95.40;;;;;;5081948;28;20043;-82
2023/12/03 00:44:28;;;;;;;1.75;1.38;;;-0.60;99.90;;;;;;5083152;28;20056;-82
2023/12/03 00:46:54;;;;;;;0.17;0.17;;;-0.50;99.90;;;;;;5079560;28;20076;-83
2023/12/03 00:49:19;;;;;;;0.30;0.30;;;-0.40;99.90;;;;;;5081706;28;20041;-83
2023/12/03 00:51:45;;;;;;;0.98;0.95;;;-0.20;99.90;;;;;;5075244;28;20548;-83
2023/12/03 00:54:10;;;;;;;1.10;1.10;;;-0.20;99.90;;;;;;5074559;28;20150;-82
2023/12/03 00:56:36;;;;;;;1.47;1.37;;;-0.10;99.90;;;;;;5082557;28;20080;-83
2023/12/03 00:59:02;;;;;;;6.23;1.60;;;-0.30;99.90;;;;;;5081726;28;20049;-82
2023/12/03 01:01:27;;;;;;;2.40;1.27;;;-0.40;99.90;;;;;;5076260;28;20486;-83
2023/12/03 01:03:54;;;;;;;0.20;0.20;;;-0.50;99.90;;;;;;5081178;28;20037;-83
2023/12/03 01:06:19;;;;;;;0.10;0.10;;;-0.70;99.90;;;;;;5080442;28;20440;-83
2023/12/03 01:08:45;;;;;;;0.20;0.20;;;-0.80;99.90;;;;;;5076154;28;20062;-83
2023/12/03 01:11:11;;;;;;;2.03;1.30;;;-0.90;99.90;;;;;;5081332;28;20098;-82
2023/12/03 01:13:36;;;;;;;0.10;0.10;;;-1.00;99.90;;;;;;5081348;28;20414;-83
2023/12/03 01:16:02;;;;;;;0.50;0.50;;;-1.00;99.90;;;;;;5079448;28;20044;-83
2023/12/03 01:18:28;;;;;;;0.37;0.37;;;-1.00;99.90;;;;;;5082014;28;20056;-83
2023/12/03 01:20:53;;;;;;;0.00;0.00;;;-1.10;99.90;;;;;;5081684;28;20028;-83
2023/12/03 01:23:19;;;;;;;0.20;0.20;;;-1.20;99.90;;;;;;5081265;28;20084;-83
2023/12/03 01:25:45;;;;;;;1.93;0.63;;;-1.30;99.90;;;;;;5080402;28;20394;-83
2023/12/03 01:28:11;;;;;;;0.40;0.40;;;-1.30;99.90;;;;;;5080179;28;20116;-83
2023/12/03 01:30:36;;;;;;;0.33;0.33;;;-1.40;99.90;;;;;;5081297;28;20402;-82
2023/12/03 01:33:02;;;;;;;0.40;0.40;;;-1.50;99.90;;;;;;5081745;28;20055;-82
2023/12/03 01:35:27;;;;;;;0.93;0.57;;;-1.50;99.90;;;;;;5079351;28;20059;-83
2023/12/03 01:37:53;;;;;;;4.07;3.33;;;-1.50;99.90;;;;;;5080239;28;20119;-83
2023/12/03 01:40:18;;;;;;;0.33;0.33;;;-1.50;99.90;;;;;;5080548;28;20040;-82
2023/12/03 01:42:45;;;;;;;0.00;0.00;;;-1.50;99.90;;;;;;5080739;28;20044;-82
2023/12/03 01:45:11;;;;;;;0.40;0.40;;;-1.60;99.90;;;;;;5080492;28;20048;-83
2023/12/03 01:47:37;;;;;;;0.60;0.60;;;-1.60;99.90;;;;;;5074634;28;20095;-82
2023/12/03 01:50:08;;;;;;;0.27;0.27;;;-1.60;99.90;;;;;;5081751;28;20041;-82
2023/12/03 01:52:35;;;;;;;0.20;0.20;;;-1.60;99.90;;;;;;5082141;28;20040;-82
2023/12/03 01:55:03;;;;;;;0.30;0.30;;;-1.50;99.90;;;;;;5081249;28;20040;-82
2023/12/03 01:57:29;;;;;;;0.33;0.33;;;-1.50;99.90;;;;;;5074609;28;20441;-82
2023/12/03 01:59:55;;;;;;;0.20;0.20;;;-1.60;99.90;;;;;;5080399;28;20435;-82
2023/12/03 02:02:21;;;;;;;1.63;1.53;;;-1.70;99.90;;;;;;5082322;28;20044;-82
2023/12/03 02:04:47;;;;;;;0.00;0.00;;;-1.70;99.90;;;;;;5080429;28;20077;-82
2023/12/03 02:07:13;;;;;;;0.10;0.10;;;-1.70;99.90;;;;;;5081581;28;20052;-82
2023/12/03 02:09:39;;;;;;;0.27;0.27;;;-1.70;99.90;;;;;;5082184;28;20044;-82
2023/12/03 02:12:05;;;;;;;0.10;0.10;;;-1.70;99.90;;;;;;5064711;28;20084;-82
2023/12/03 02:14:31;;;;;;;0.30;0.30;;;-1.70;99.90;;;;;;5081804;28;20058;-82
2023/12/03 02:16:56;;;;;;;0.00;0.00;;;-1.70;99.90;;;;;;5068546;28;20090;-81
2023/12/03 02:19:22;;;;;;;0.40;0.40;;;-1.70;99.90;;;;;;5080121;28;20393;-82
2023/12/03 02:21:47;;;;;;;1.07;1.07;;;-1.70;99.90;;;;;;5080622;28;20056;-82
2023/12/03 02:24:13;;;;;;;0.07;0.07;;;-1.80;99.90;;;;;;5080230;28;20053;-82
2023/12/03 02:26:38;;;;;;;0.00;0.00;;;-1.80;99.90;;;;;;5079842;28;20040;-82
2023/12/03 02:29:04;;;;;;;0.00;0.00;;;-1.90;99.90;;;;;;5081404;28;20070;-82
2023/12/03 02:31:30;;;;;;;0.10;0.10;;;-2.00;99.90;;;;;;5080274;28;20045;-82
2023/12/03 02:34:10;;;;;;;0.10;0.10;;;-2.00;99.90;;;;;;5080835;28;20041;-82
2023/12/03 02:36:37;;;;;;;0.10;0.10;;;-2.00;99.90;;;;;;5081204;28;20106;-82
2023/12/03 02:39:03;;;;;;;0.07;0.07;;;-2.10;99.90;;;;;;5081421;28;20055;-82
2023/12/03 02:41:28;;;;;;;1.63;1.07;;;-2.10;99.90;;;;;;5081265;28;20352;-82
2023/12/03 02:43:54;;;;;;;0.67;0.67;;;-2.10;99.90;;;;;;5073012;28;20547;-82
2023/12/03 02:46:19;;;;;;;1.03;0.93;;;-2.20;99.90;;;;;;5074024;28;20079;-82
2023/12/03 02:48:45;;;;;;;0.10;0.10;;;-2.20;99.90;;;;;;5080206;28;20123;-82
2023/12/03 02:51:11;;;;;;;0.00;0.00;;;-2.20;99.90;;;;;;5081187;28;20048;-82
2023/12/03 02:53:37;;;;;;;0.00;0.00;;;-2.30;99.90;;;;;;5080803;28;20044;-82
2023/12/03 02:56:03;;;;;;;0.00;0.00;;;-2.30;99.90;;;;;;5072686;28;20071;-82
2023/12/03 02:58:29;;;;;;;0.00;0.00;;;-2.30;99.90;;;;;;5080166;28;20070;-82
2023/12/03 03:00:54;;;;;;;0.00;0.00;;;-2.30;99.90;;;;;;5079567;28;20099;-82
2023/12/03 03:03:20;;;;;;;1.07;0.70;;;-2.30;99.90;;;;;;5081354;28;20072;-82
2023/12/03 03:05:45;;;;;;;0.30;0.30;;;-2.30;99.90;;;;;;5074652;28;20045;-82
2023/12/03 03:08:11;;;;;;;0.00;0.00;;;-2.30;99.90;;;;;;5079728;28;20040;-82
2023/12/03 03:10:37;;;;;;;0.77;0.67;;;-2.10;99.90;;;;;;5081006;28;20044;-82
2023/12/03 03:13:02;;;;;;;1.90;1.57;;;-2.00;99.90;;;;;;5081079;28;20529;-82
2023/12/03 03:15:28;;;;;;;0.50;0.43;;;-1.80;99.90;;;;;;5076653;28;20041;-82
2023/12/03 03:17:54;;;;;;;0.33;0.33;;;-1.60;99.90;;;;;;5061103;28;20064;-82
2023/12/03 03:20:21;;;;;;;0.20;0.20;;;-1.40;99.90;;;;;;5079022;28;20062;-82
2023/12/03 03:22:47;;;;;;;0.93;0.93;;;-1.30;99.90;;;;;;5081432;28;20402;-82
2023/12/03 03:25:13;;;;;;;1.20;1.13;;;-1.10;99.90;;;;;;5081118;28;20044;-82
2023/12/03 03:27:39;;;;;;;8.53;5.50;;;-1.00;99.90;;;;;;5077677;28;20052;-82
2023/12/03 03:30:06;;;;;;;3.90;3.57;;;-0.90;99.90;;;;;;5078024;28;20036;-82
2023/12/03 03:32:32;;;;;;;2.33;2.17;;;-0.90;99.90;;;;;;5078183;28;20516;-82
2023/12/03 03:34:58;;;;;;;1.70;1.60;;;-0.80;99.90;;;;;;5079911;28;20048;-82
2023/12/03 03:37:24;;;;;;;0.77;0.77;;;-0.80;99.90;;;;;;5079831;28;20045;-82
2023/12/03 03:39:49;;;;;;;3.87;3.57;;;-0.70;99.90;;;;;;5077208;28;20048;-82
2023/12/03 03:42:15;;;;;;;9.47;7.03;;;-0.70;99.90;;;;;;5079318;28;20048;-82
2023/12/03 03:44:40;;;;;;;3.97;3.43;;;-0.70;99.90;;;;;;5081023;28;20047;-82
2023/12/03 03:47:06;;;;;;;1.73;1.63;;;-0.60;99.90;;;;;;5077599;28;20533;-82
2023/12/03 03:49:31;;;;;;;8.70;4.53;;;-0.50;99.90;;;;;;5072164;28;20464;-82
2023/12/03 03:51:57;;;;;;;3.40;3.17;;;-0.50;99.90;;;;;;5082697;28;20375;-82
2023/12/03 03:54:23;;;;;;;8.90;5.03;;;-0.40;99.90;;;;;;5085257;28;20166;-82
2023/12/03 03:56:48;;;;;;;9.77;4.80;;;-0.30;99.90;;;;;;5082833;28;20057;-82
2023/12/03 03:59:14;;;;;;;7.07;6.33;;;-0.30;1.00;;;;;;5085308;28;20041;-82
2023/12/03 04:01:46;;;;;;;8.07;7.33;;;-0.20;1.00;;;;;;5080663;28;20041;-82
2023/12/03 04:04:12;;;;;;;6.77;4.60;;;-0.10;1.00;;;;;;5084243;28;20048;-82
2023/12/03 04:06:44;;;;;;;5.45;4.93;;;-0.10;1.00;;;;;;5078166;28;20076;-82
2023/12/03 04:09:11;;;;;;;7.03;4.80;;;-0.10;1.00;;;;;;5076802;28;20045;-82
2023/12/03 04:11:43;;;;;;;11.60;6.97;;;0.00;1.00;;;;;;5084851;28;20076;-82
2023/12/03 04:14:12;;;;;;;9.73;7.40;;;0.10;1.00;;;;;;5076194;28;20071;-82
2023/12/03 04:16:38;;;;;;;4.00;3.70;;;0.10;1.00;;;;;;5083305;28;20047;-82
2023/12/03 04:19:05;;;;;;;6.27;3.93;;;0.20;1.00;;;;;;5083782;28;20486;-82
2023/12/03 04:21:30;;;;;;;15.63;7.23;;;0.20;1.00;;;;;;5083416;28;20547;-82
2023/12/03 04:23:57;;;;;;;6.13;5.57;;;0.20;1.00;;;;;;5084041;28;20037;-82
2023/12/03 04:26:23;;;;;;;7.17;4.63;;;0.30;1.00;;;;;;5083641;28;20033;-82
2023/12/03 04:28:49;;;;;;;7.13;4.07;;;0.30;1.00;;;;;;5082603;28;20111;-82
2023/12/03 04:31:23;;;;;;;3.50;3.23;;;0.30;1.00;;;;;;5082595;28;20098;-82
2023/12/03 04:33:50;;;;;;;4.50;3.47;;;0.40;1.00;;;;;;5082859;28;20036;-82
2023/12/03 04:36:16;;;;;;;7.20;4.47;;;0.30;1.00;;;;;;5075475;28;20048;-82
2023/12/03 04:38:42;;;;;;;4.07;3.73;;;0.40;1.00;;;;;;5082707;28;20050;-82
2023/12/03 04:41:08;;;;;;;1.63;1.53;;;0.40;1.00;;;;;;5082686;28;20044;-81
2023/12/03 04:43:34;;;;;;;1.20;1.10;;;0.40;1.00;;;;;;5082735;28;20305;-82
2023/12/03 04:46:07;;;;;;;4.60;4.13;;;0.40;1.00;;;;;;5074771;28;20039;-82
2023/12/03 04:48:37;;;;;;;1.30;1.23;;;0.40;1.00;;;;;;5084594;28;20068;-82
2023/12/03 04:51:03;;;;;;;2.10;1.13;;;0.40;1.00;;;;;;5082646;28;20044;-82
2023/12/03 04:53:29;;;;;;;1.23;1.13;;;0.50;1.00;;;;;;5083053;28;20441;-82
2023/12/03 04:55:54;;;;;;;0.30;0.30;;;0.40;1.00;;;;;;5082539;28;20063;-82
2023/12/03 04:58:20;;;;;;;1.98;1.13;;;0.40;1.00;;;;;;5083926;28;20477;-83
2023/12/03 05:00:46;;;;;;;0.53;0.53;;;0.40;1.00;;;;;;5078743;28;20048;-83
2023/12/03 05:03:11;;;;;;;0.43;0.43;;;0.40;1.00;;;;;;5075144;28;20044;-82
2023/12/03 05:05:37;;;;;;;0.30;0.30;;;0.40;1.00;;;;;;5082243;28;20044;-82
2023/12/03 05:08:03;;;;;;;1.50;1.23;;;0.40;1.00;;;;;;5084097;28;20056;-83
2023/12/03 05:10:31;;;;;;;0.55;0.55;;;0.40;1.00;;;;;;5078697;28;20094;-82
2023/12/03 05:12:57;;;;;;;1.00;0.73;;;0.50;1.00;;;;;;5081239;28;20056;-82
2023/12/03 05:15:23;;;;;;;2.05;1.13;;;0.40;1.00;;;;;;5080744;28;20041;-83
2023/12/03 05:17:48;;;;;;;0.27;0.27;;;0.40;1.00;;;;;;5083219;28;20045;-82
2023/12/03 05:20:14;;;;;;;0.30;0.30;;;0.50;1.00;;;;;;5072931;28;20079;-82
2023/12/03 05:22:40;;;;;;;0.40;0.40;;;0.50;1.80;;;;;;5080919;28;20113;-82
2023/12/03 05:25:06;;;;;;;1.27;1.17;;;0.50;3.70;;;;;;5078449;28;20037;-83
2023/12/03 05:27:32;;;;;;;1.30;1.20;;;0.50;4.80;;;;;;5080899;28;20402;-83
2023/12/03 05:29:58;;;;;;;1.30;1.20;;;0.50;5.90;;;;;;5078384;28;20036;-83
2023/12/03 05:32:24;;;;;;;1.43;1.13;;;0.50;7.20;;;;;;5078054;28;20075;-83
2023/12/03 05:34:51;;;;;;;0.20;0.20;;;0.50;6.80;;;;;;5078015;28;20065;-83
2023/12/03 05:37:17;;;;;;;1.52;1.42;;;0.50;6.80;;;;;;5080219;28;20056;-83
2023/12/03 05:39:43;;;;;;;1.45;0.63;;;0.50;10.60;;;;;;5079795;28;20440;-83
2023/12/03 05:42:09;;;;;;;0.50;0.50;;;0.50;10.00;;;;;;5078860;28;20080;-83
2023/12/03 05:44:34;;;;;;;1.02;0.95;;;0.50;11.30;;;;;;5078540;28;20113;-83
2023/12/03 05:47:03;;;;;;;0.38;0.38;;;0.50;14.20;;;;;;5079446;28;20044;-83
2023/12/03 05:49:29;;;;;;;0.70;0.70;;;0.50;15.20;;;;;;5078790;28;20045;-83
2023/12/03 05:51:54;;;;;;;1.43;1.33;;;0.50;17.40;;;;;;5079548;28;20036;-83
2023/12/03 05:54:20;;;;;;;1.03;0.93;;;0.50;19.30;;;;;;5072119;28;20094;-83
2023/12/03 05:56:46;;;;;;;2.87;2.00;;;0.50;21.20;;;;;;5077093;28;20136;-83
2023/12/03 05:59:12;;;;;;;1.63;1.53;;;0.60;24.70;;;;;;5079333;28;20047;-83
2023/12/03 06:01:38;;;;;;;0.57;0.40;;;0.60;27.80;;;;;;5077447;28;20115;-83
2023/12/03 06:04:07;;;;;;;0.20;0.20;;;0.60;31.70;;;;;;5078084;28;20037;-83
2023/12/03 06:06:33;;;;;;;2.35;2.17;;;0.70;31.90;;;;;;5078900;28;20058;-83
2023/12/03 06:08:59;;;;;;;1.87;1.63;;;0.60;34.40;;;;;;5077925;28;20517;-83
2023/12/03 06:11:26;;;;;;;10.63;2.40;;;0.70;35.90;;;;;;5078256;28;20056;-83
2023/12/03 06:13:54;;;;;;;2.50;2.30;;;0.70;38.40;;;;;;5073229;28;20053;-83
2023/12/03 06:16:19;;;;;;;3.10;0.77;;;0.70;43.50;;;;;;5074611;28;20043;-83
2023/12/03 06:18:45;;;;;;;0.47;0.47;;;0.70;46.10;;;;;;5076908;28;20086;-83
2023/12/03 06:21:10;;;;;;;2.23;1.23;;;0.70;48.20;;;;;;5076985;28;20047;-83
2023/12/03 06:23:36;;;;;;;1.17;1.07;;;0.70;49.80;;;;;;5077709;28;20041;-83
2023/12/03 06:26:02;;;;;;;0.82;0.82;;;0.80;51.30;;;;;;5075540;28;20032;-83
2023/12/03 06:28:27;;;;;;;0.60;0.60;;;0.80;52.50;;;;;;5080871;28;20037;-83
2023/12/03 06:30:53;;;;;;;0.60;0.60;;;0.70;50.80;;;;;;5081020;28;20521;-82
2023/12/03 06:33:19;;;;;;;2.57;1.50;;;0.70;51.80;;;;;;5074544;28;20044;-83
2023/12/03 06:35:45;;;;;;;2.03;1.30;;;0.70;54.50;;;;;;5072503;28;20115;-83
2023/12/03 06:38:11;;;;;;;9.17;1.40;;;0.80;56.70;;;;;;5077295;28;20528;-82
2023/12/03 06:40:36;;;;;;;1.60;1.30;;;0.80;57.70;;;;;;5079681;28;20029;-83
2023/12/03 06:43:02;;;;;;;4.83;1.53;;;0.80;58.80;;;;;;5078302;28;20036;-83
2023/12/03 06:45:28;;;;;;;1.13;1.03;;;0.80;57.80;;;;;;5071962;28;20049;-83
2023/12/03 06:47:53;;;;;;;1.33;1.23;;;0.70;56.10;;;;;;5076807;28;20054;-83
2023/12/03 06:50:19;;;;;;;1.77;0.83;;;0.70;58.60;;;;;;5078271;28;20070;-83
2023/12/03 06:52:45;;;;;;;0.80;0.37;;;0.70;57.90;;;;;;5079418;28;20036;-83
2023/12/03 06:55:12;;;;;;;0.90;0.60;;;0.70;55.70;;;;;;5077078;28;20040;-83
2023/12/03 06:57:37;;;;;;;1.13;1.13;;;0.70;54.90;;;;;;5080798;28;20080;-83
2023/12/03 07:00:04;;;;;;;1.37;1.13;;;0.70;54.40;;;;;;5080229;28;20059;-83
2023/12/03 07:02:30;;;;;;;0.13;0.13;;;0.70;54.00;;;;;;5080782;28;20049;-83
2023/12/03 07:04:56;;;;;;;1.60;1.50;;;0.70;55.70;;;;;;5080096;28;20474;-82
2023/12/03 07:07:22;;;;;;;0.43;0.40;;;0.70;56.60;;;;;;5081434;28;20068;-82
2023/12/03 07:09:47;;;;;;;0.93;0.90;;;0.70;55.60;;;;;;5076686;28;20433;-83
2023/12/03 07:12:13;;;;;;;1.40;1.30;;;0.70;55.20;;;;;;5078924;28;20055;-83
2023/12/03 07:14:38;;;;;;;0.43;0.43;;;0.70;54.90;;;;;;5073495;28;20067;-83
2023/12/03 07:17:04;;;;;;;2.47;1.77;;;0.70;56.70;;;;;;5074637;28;20124;-82
2023/12/03 07:19:30;;;;;;;0.20;0.20;;;0.70;54.70;;;;;;5079577;28;20132;-83
2023/12/03 07:21:55;;;;;;;0.30;0.30;;;0.70;53.10;;;;;;5078777;28;20040;-83
2023/12/03 07:24:21;;;;;;;3.50;1.93;;;0.70;57.60;;;;;;5079991;28;20048;-83
2023/12/03 07:26:47;;;;;;;0.83;0.77;;;0.80;62.90;;;;;;5078758;28;20378;-83
2023/12/03 07:29:12;;;;;;;0.97;0.93;;;0.80;61.60;;;;;;5078923;28;20051;-83
2023/12/03 07:31:38;;;;;;;0.40;0.40;;;0.80;62.70;;;;;;5081032;28;20041;-83
2023/12/03 07:34:03;;;;;;;7.30;3.53;;;0.80;62.50;;;;;;5080647;28;20033;-82
2023/12/03 07:36:29;;;;;;;0.33;0.33;;;0.80;63.80;;;;;;5069088;28;20546;-83
2023/12/03 07:38:54;;;;;;;1.17;1.10;;;0.80;63.70;;;;;;5068237;28;20069;-83
2023/12/03 07:41:20;;;;;;;1.10;1.03;;;0.90;65.50;;;;;;5075731;28;20475;-83
2023/12/03 07:43:46;;;;;;;6.63;1.93;;;0.90;68.20;;;;;;5078846;28;20468;-83
2023/12/03 07:46:18;;;;;;;4.50;2.20;;;0.90;69.70;;;;;;5079963;28;20045;-83
2023/12/03 07:48:44;;;;;;;1.37;1.27;;;1.00;73.90;;;;;;5079401;28;20075;-83
2023/12/03 07:51:10;;;;;;;0.47;0.47;;;1.00;76.30;;;;;;5075783;28;20119;-83
2023/12/03 07:53:36;;;;;;;0.70;0.70;;;1.10;77.30;;;;;;5073330;28;20048;-83
2023/12/03 07:56:01;;;;;;;0.17;0.17;;;1.10;79.20;;;;;;5076513;28;20079;-83
2023/12/03 07:58:27;;;;;;;1.17;1.17;;;1.10;79.40;;;;;;5075954;28;20053;-83
2023/12/03 08:00:53;;;;;;;0.40;0.40;;;1.10;84.10;;;;;;5077028;28;20050;-83
2023/12/03 08:03:18;;;;;;;0.53;0.53;;;1.20;84.80;;;;;;5075122;28;20052;-83
2023/12/03 08:05:44;;;;;;;1.33;1.23;;;1.20;83.60;;;;;;5071772;28;20049;-83
2023/12/03 08:08:10;;;;;;;2.83;2.47;;;1.20;84.30;;;;;;5063482;28;20047;-82
2023/12/03 08:10:35;;;;;;;2.00;0.90;;;1.20;85.70;;;;;;5077981;28;20451;-83
2023/12/03 08:13:01;;;;;;;1.90;1.50;;;1.30;87.40;;;;;;5079705;28;20469;-83
2023/12/03 08:15:26;;;;;;;4.07;3.20;;;1.30;87.90;;;;;;5068158;28;20033;-83
2023/12/03 08:17:52;;;;;;;0.93;0.93;;;1.30;90.70;;;;;;5073003;28;20118;-83
2023/12/03 08:20:18;;;;;;;0.50;0.47;;;1.30;92.20;;;;;;5071755;28;20127;-83
2023/12/03 08:22:43;;;;;;;0.20;0.20;;;1.30;91.60;;;;;;5068175;28;20600;-83
2023/12/03 08:25:09;;;;;;;1.20;1.20;;;1.30;91.90;;;;;;5072243;28;20040;-83
2023/12/03 08:27:35;;;;;;;2.23;2.00;;;1.30;94.10;;;;;;5077779;28;20067;-83
2023/12/03 08:30:00;;;;;;;0.00;0.00;;;1.40;94.40;;;;;;5076941;28;20040;-83
2023/12/03 08:32:26;;;;;;;0.67;0.67;;;2.20;96.00;;;;;;5079370;28;20044;-82
2023/12/03 08:34:51;;;;;;;0.30;0.30;;;1.40;96.30;;;;;;5077904;28;20383;-83
2023/12/03 08:37:17;;;;;;;0.70;0.70;;;1.50;97.60;;;;;;5075542;28;20032;-83
2023/12/03 08:39:43;;;;;;;2.93;2.47;;;1.50;97.30;;;;;;5071639;28;20118;-83
2023/12/03 08:42:08;;;;;;;0.80;0.80;;;1.40;95.80;;;;;;5077993;28;20441;-83
2023/12/03 08:44:34;;;;;;;1.43;1.33;;;1.40;95.70;;;;;;5070423;28;20063;-83
2023/12/03 08:46:59;;;;;;;0.93;0.93;;;1.40;95.40;;;;;;5079164;28;20040;-83
2023/12/03 08:49:26;;;;;;;1.63;1.53;;;1.50;97.30;;;;;;5078561;28;20094;-83
2023/12/03 08:51:51;;;;;;;0.90;0.90;;;1.50;97.00;;;;;;5062030;28;20049;-83
2023/12/03 08:54:17;;;;;;;1.27;0.90;;;1.50;97.20;;;;;;5073580;28;20041;-83
2023/12/03 08:56:43;;;;;;;1.13;1.03;;;1.60;98.80;;;;;;5069329;28;20084;-83
2023/12/03 08:59:09;;;;;;;1.53;1.43;;;1.50;98.10;;;;;;5079784;28;20053;-83
2023/12/03 09:01:38;;;;;;;0.90;0.90;;;1.50;98.10;;;;;;5079556;28;20045;-83
2023/12/03 09:04:03;;;;;;;1.00;0.82;;;1.50;97.20;;;;;;5077320;28;20099;-83
2023/12/03 09:06:29;;;;;;;3.10;1.45;;;1.50;96.60;;;;;;5074982;28;20119;-84
2023/12/03 09:08:55;;;;;;;2.00;1.80;;;1.60;96.80;;;;;;5066665;28;20067;-84
2023/12/03 09:11:22;;;;;;;0.85;0.85;;;1.60;96.10;;;;;;5077815;28;20046;-84
2023/12/03 09:13:47;;;;;;;0.68;0.65;;;1.60;97.20;;;;;;5075939;28;20260;-84
2023/12/03 09:16:13;;;;;;;1.57;1.50;;;1.60;97.00;;;;;;5079429;28;20056;-83
2023/12/03 09:18:38;;;;;;;1.50;1.40;;;1.70;96.40;;;;;;5077207;28;20071;-83
2023/12/03 09:21:11;;;;;;;1.23;1.17;;;1.60;95.40;;;;;;5048188;28;20044;-83
2023/12/03 09:23:37;;;;;;;2.30;2.10;;;1.60;95.30;;;;;;5067967;28;20445;-83
2023/12/03 09:26:02;;;;;;;7.30;2.37;;;1.60;93.40;;;;;;5074749;28;20037;-83
2023/12/03 09:28:30;;;;;;;0.80;0.77;;;1.60;93.00;;;;;;5076268;28;20040;-83
2023/12/03 09:30:57;;;;;;;3.50;1.93;;;1.70;95.00;;;;;;5075808;28;20047;-83
2023/12/03 09:33:27;;;;;;;1.80;0.93;;;1.70;95.10;;;;;;5078035;28;20127;-83
2023/12/03 09:35:55;;;;;;;0.73;0.73;;;1.80;96.60;;;;;;5079014;28;20094;-83
2023/12/03 09:38:22;;;;;;;0.85;0.85;;;1.80;96.00;;;;;;5071379;28;20230;-83
2023/12/03 09:40:48;;;;;;;2.03;1.08;;;1.90;96.50;;;;;;5075947;28;20040;-83
2023/12/03 09:43:18;;;;;;;5.82;2.15;;;2.00;98.70;;;;;;5076774;28;20409;-83
2023/12/03 09:45:45;;;;;;;4.17;3.77;;;2.00;96.10;;;;;;5077868;28;20075;-83
2023/12/03 09:48:12;;;;;;;1.13;1.05;;;2.00;94.60;;;;;;5076189;28;20040;-83
2023/12/03 09:50:38;;;;;;;1.20;1.17;;;2.00;93.50;;;;;;5070523;28;20049;-83
2023/12/03 09:53:06;;;;;;;0.52;0.52;;;2.00;94.10;;;;;;5074858;28;20036;-83
2023/12/03 09:55:33;;;;;;;3.33;1.77;;;2.10;93.20;;;;;;5067741;28;20048;-83
2023/12/03 09:57:59;;;;;;;5.35;1.25;;;2.00;89.00;;;;;;5075886;28;20063;-83
2023/12/03 10:00:25;;;;;;;1.33;1.30;;;2.10;82.50;;;;;;5055163;28;20344;-83
2023/12/03 10:02:55;;;;;;;0.70;0.70;;;2.10;74.40;;;;;;5077320;28;20439;-83
2023/12/03 10:05:21;;;;;;;2.10;1.83;;;2.10;61.40;;;;;;5078296;28;20079;-83
2023/12/03 10:07:49;;;;;;;3.95;3.55;;;2.20;61.40;;;;;;5071909;28;20490;-82
2023/12/03 10:10:19;;;;;;;2.00;1.67;;;2.20;56.10;;;;;;5072183;28;20052;-82
2023/12/03 10:12:47;;;;;;;1.23;1.17;;;2.30;50.80;;;;;;5070181;28;20036;-82
2023/12/03 10:15:13;;;;;;;3.67;3.15;;;2.30;36.00;;;;;;5071467;28;20506;-82
2023/12/03 10:17:39;;;;;;;2.85;2.33;;;2.40;28.90;;;;;;5072600;28;20051;-82
2023/12/03 10:20:26;;;;;;;0.98;0.98;;;2.30;1.00;;;;;;5075337;28;20063;-82
2023/12/03 10:22:54;;;;;;;2.45;1.90;;;2.30;1.00;;;;;;5078625;28;20082;-82
2023/12/03 10:25:32;;;;;;;3.70;1.80;;;2.30;1.00;;;;;;5067926;28;20040;-83
2023/12/03 10:28:00;;;;;;;0.88;0.63;;;2.30;1.00;;;;;;5073557;28;20048;-82
2023/12/03 10:30:26;;;;;;;3.28;2.28;;;2.40;99.90;;;;;;5078647;28;20040;-82
2023/12/03 10:32:52;;;;;;;1.42;1.33;;;2.30;99.90;;;;;;5079380;28;20052;-83
2023/12/03 10:35:25;;;;;;;5.60;1.75;;;2.40;99.90;;;;;;5071061;28;20494;-83
2023/12/03 10:37:51;;;;;;;1.35;1.23;;;2.40;24.30;;;;;;5079115;28;20037;-83
2023/12/03 10:40:18;;;;;;;2.33;2.13;;;2.40;99.90;;;;;;5071377;28;20064;-83
2023/12/03 10:42:47;;;;;;;2.30;1.60;;;2.50;65.10;;;;;;5078776;28;20049;-83
2023/12/03 10:45:14;;;;;;;1.88;1.77;;;2.40;99.90;;;;;;5077665;28;20303;-83
2023/12/03 10:47:41;;;;;;;1.15;1.08;;;2.30;99.90;;;;;;5069813;28;20072;-83
2023/12/03 10:50:08;;;;;;;3.53;2.92;;;2.30;99.90;;;;;;5078802;28;20048;-83
2023/12/03 10:52:35;;;;;;;1.53;1.23;;;2.30;99.90;;;;;;5072788;28;20403;-84
2023/12/03 10:55:02;;;;;;;1.03;1.00;;;2.40;99.90;;;;;;5069313;28;20348;-84
2023/12/03 10:57:43;;;;;;;0.83;0.83;;;2.40;1.00;;;;;;5070224;28;20053;-84
2023/12/03 11:00:09;;;;;;;0.82;0.80;;;2.30;99.90;;;;;;5075192;28;20457;-83
2023/12/03 11:02:45;;;;;;;1.60;1.52;;;2.40;99.90;;;;;;5074129;28;20119;-83
2023/12/03 11:05:31;;;;;;;;;;;2.30;1.00;;;;;;5076078;28;20048;-84
2023/12/03 11:08:02;;;;;;;3.53;3.22;;;2.20;99.90;;;;;;5067963;28;20423;-84
2023/12/03 11:10:28;;;;;;;0.50;0.50;;;2.30;94.40;;;;;;5071794;28;20064;-83
2023/12/03 11:12:54;;;;;;;2.70;2.17;;;2.30;1.00;;;;;;5075263;28;20048;-83
2023/12/03 11:15:21;;;;;;;1.37;1.27;;;2.20;1.00;;;;;;5075903;28;20048;-83
2023/12/03 11:17:49;;;;;;;2.67;1.33;;;2.30;48.50;;;;;;5074416;28;20040;-84
2023/12/03 11:20:22;;;;;;;2.03;1.93;;;2.30;1.00;;;;;;5066873;28;20040;-83
2023/12/03 11:23:30;;;;;;;3.33;1.87;;;2.30;1.00;;;;;;5074605;28;20120;-83
2023/12/03 11:26:13;;;;;;;1.85;1.75;;;2.20;1.00;;;;;;5072941;28;20041;-83
2023/12/03 11:28:55;;;;;;;1.30;1.25;;;2.40;99.90;;;;;;5075076;28;20048;-83
2023/12/03 11:31:24;;;;;;;0.57;0.57;;;2.30;99.90;;;;;;5075810;28;20036;-84
2023/12/03 11:33:59;;;;;;;2.37;2.23;;;2.30;18.80;;;;;;5076346;28;20084;-84
2023/12/03 11:36:49;;;;;;;0.35;0.35;;;2.40;1.00;;;;;;5078278;28;20127;-84
2023/12/03 11:39:15;;;;;;;6.82;3.85;;;2.40;1.00;;;;;;5069786;28;20130;-84
2023/12/03 11:41:44;;;;;;;0.88;0.88;;;2.40;1.00;;;;;;5068034;28;20071;-83
2023/12/03 11:44:20;;;;;;;1.85;1.75;;;2.60;90.90;;;;;;5071118;28;20044;-83
2023/12/03 11:46:50;;;;;;;4.70;2.63;;;2.70;99.90;;;;;;5068231;28;20044;-83
2023/12/03 11:49:17;;;;;;;2.80;2.33;;;2.80;71.00;;;;;;5069764;28;20040;-83
2023/12/03 11:51:46;;;;;;;3.10;2.53;;;3.00;1.00;;;;;;5065764;28;20051;-83
2023/12/03 11:54:20;;;;;;;11.50;3.03;;;2.90;1.00;;;;;;5074320;28;20075;-83
2023/12/03 11:56:45;;;;;;;3.33;2.08;;;2.90;1.00;;;;;;5074001;28;20053;-83
2023/12/03 11:59:14;;;;;;;1.13;1.10;;;3.10;27.20;;;;;;5068436;28;20060;-83
2023/12/03 12:01:39;;;;;;;1.90;0.83;;;3.10;99.90;;;;;;5074245;28;20040;-83
2023/12/03 12:04:05;;;;;;;0.85;0.85;;;3.00;99.90;;;;;;5074460;28;20102;-83
2023/12/03 12:06:32;;;;;;;0.28;0.28;;;2.90;99.90;;;;;;5074239;28;20051;-83
2023/12/03 12:08:58;;;;;;;0.77;0.77;;;2.80;1.00;;;;;;5059229;28;20041;-83
2023/12/03 12:11:24;;;;;;;1.05;1.05;;;2.80;99.90;;;;;;5069499;28;20649;-83
2023/12/03 12:13:50;;;;;;;1.40;1.30;;;2.80;99.90;;;;;;5074775;28;20128;-83
2023/12/03 12:16:16;;;;;;;0.93;0.93;;;2.60;99.90;;;;;;5076505;28;20119;-83
2023/12/03 12:18:41;;;;;;;3.37;2.73;;;2.50;99.90;;;;;;5068986;28;20036;-83
2023/12/03 12:21:11;;;;;;;1.00;1.00;;;2.40;99.90;;;;;;5075054;28;20101;-83
2023/12/03 12:23:37;;;;;;;0.30;0.30;;;2.40;99.90;;;;;;5068606;28;20044;-84
2023/12/03 12:26:03;;;;;;;1.60;1.50;;;2.40;99.90;;;;;;5076817;28;20398;-84
2023/12/03 12:28:29;;;;;;;1.33;1.25;;;2.50;99.90;;;;;;5075843;28;20037;-84
2023/12/03 12:30:55;;;;;;;1.92;1.65;;;2.50;99.90;;;;;;5077042;28;20486;-84
2023/12/03 12:33:21;;;;;;;1.88;1.50;;;2.60;99.90;;;;;;5068340;28;20727;-84
2023/12/03 12:35:53;;;;;;;2.90;1.48;;;2.70;99.90;;;;;;5077023;28;20037;-84
2023/12/03 12:38:18;;;;;;;1.42;1.33;;;2.70;99.90;;;;;;5076086;28;20068;-83
2023/12/03 12:40:54;;;;;;;2.65;2.38;;;2.70;99.90;;;;;;5077334;28;20079;-83
2023/12/03 12:43:23;;;;;;;1.35;1.25;;;2.70;99.90;;;;;;5069874;28;20128;-83
2023/12/03 12:45:49;;;;;;;0.20;0.20;;;2.70;99.90;;;;;;5068274;28;20101;-84
2023/12/03 12:48:26;;;;;;;2.35;2.08;;;2.60;99.90;;;;;;5076567;28;20045;-84
2023/12/03 12:50:52;;;;;;;2.00;1.33;;;2.60;99.90;;;;;;5069333;28;20044;-84
2023/12/03 12:53:19;;;;;;;1.33;1.05;;;2.50;99.90;;;;;;5074178;28;20067;-84